createdAt,value
2022-08-25T00:00:22.587Z,100521.97
2022-08-25T00:02:56.098Z,100523.31
2022-08-25T00:05:32.236Z,100519.88
2022-08-25T00:08:01.847Z,100547.81
2022-08-25T00:10:30.583Z,100526.97
2022-08-25T00:12:59.188Z,100534.16
2022-08-25T00:15:28.619Z,100547.56
2022-08-25T00:17:57.515Z,100544.38
2022-08-25T00:20:26.792Z,100536.94
2022-08-25T00:22:56.426Z,100527.69
2022-08-25T00:25:26.756Z,100552.66
2022-08-25T00:27:55.637Z,100571.25
2022-08-25T00:30:23.967Z,100579.72
2022-08-25T00:32:57.580Z,100587.19
2022-08-25T00:35:26.970Z,100598.31
2022-08-25T00:37:55.901Z,100609.22
2022-08-25T00:40:26.472Z,100592.50
2022-08-25T00:42:56.168Z,100580.47
2022-08-25T00:45:24.800Z,100582.06
2022-08-25T00:47:53.282Z,100576.69
2022-08-25T00:50:22.921Z,100595.59
2022-08-25T00:53:00.125Z,100595.56
2022-08-25T00:55:40.319Z,100618.16
2022-08-25T00:58:21.511Z,100615.34
2022-08-25T01:00:55.613Z,100628.13
2022-08-25T01:03:35.662Z,100639.56
2022-08-25T01:06:05.590Z,100636.53
2022-08-25T01:08:34.319Z,100631.78
2022-08-25T01:11:07.499Z,100641.94
2022-08-25T01:13:45.351Z,100642.41
2022-08-25T01:16:15.814Z,100662.53
2022-08-25T01:18:59.463Z,100673.94
2022-08-25T01:21:30.580Z,100688.34
2022-08-25T01:24:00.040Z,100708.78
2022-08-25T01:26:32.758Z,100717.31
2022-08-25T01:29:25.680Z,100705.00
2022-08-25T01:32:00.580Z,100697.38
2022-08-25T01:34:33.709Z,100717.97
2022-08-25T01:37:02.180Z,100717.44
2022-08-25T01:39:34.084Z,100705.47
2022-08-25T01:42:19.693Z,100692.59
2022-08-25T01:44:49.021Z,100717.59
2022-08-25T01:47:17.444Z,100700.25
2022-08-25T01:49:45.749Z,100714.53
2022-08-25T01:52:40.069Z,100736.59
2022-08-25T01:55:08.546Z,100749.06
2022-08-25T01:57:36.764Z,100748.41
2022-08-25T02:00:12.509Z,100753.50
2022-08-25T02:02:42.543Z,100737.84
2022-08-25T02:05:14.200Z,100732.72
2022-08-25T02:07:44.251Z,100749.66
2022-08-25T02:10:13.892Z,100749.66
2022-08-25T02:12:42.276Z,100756.19
2022-08-25T02:15:10.804Z,100752.97
2022-08-25T02:17:39.481Z,100760.63
2022-08-25T02:20:09.752Z,100782.09
2022-08-25T02:22:38.063Z,100795.94
2022-08-25T02:25:06.850Z,100784.00
2022-08-25T02:27:35.576Z,100791.50
2022-08-25T02:30:06.077Z,100785.91
2022-08-25T02:32:34.406Z,100771.78
2022-08-25T02:35:02.844Z,100764.25
2022-08-25T02:37:31.082Z,100758.69
2022-08-25T02:40:00.207Z,100759.13
2022-08-25T02:42:28.540Z,100755.66
2022-08-25T02:44:57.171Z,100779.78
2022-08-25T02:47:27.075Z,100765.31
2022-08-25T02:49:55.797Z,100784.41
2022-08-25T02:52:25.357Z,100799.41
2022-08-25T02:54:54.093Z,100799.53
2022-08-25T02:57:22.342Z,100797.84
2022-08-25T02:59:51.718Z,100812.13
2022-08-25T03:02:20.407Z,100818.47
2022-08-25T03:04:48.677Z,100816.25
2022-08-25T03:07:17.853Z,100796.28
2022-08-25T03:09:46.506Z,100815.44
2022-08-25T03:12:14.877Z,100826.66
2022-08-25T03:14:43.313Z,100825.13
2022-08-25T03:17:11.552Z,100832.03
2022-08-25T03:19:40.066Z,100833.91
2022-08-25T03:22:08.298Z,100841.03
2022-08-25T03:24:36.520Z,100848.91
2022-08-25T03:27:05.514Z,100862.75
2022-08-25T03:29:34.599Z,100858.28
2022-08-25T03:32:03.129Z,100860.00
2022-08-25T03:34:31.689Z,100864.59
2022-08-25T03:37:00.337Z,100853.88
2022-08-25T03:39:29.185Z,100859.06
2022-08-25T03:41:57.604Z,100844.09
2022-08-25T03:44:25.817Z,100844.28
2022-08-25T03:46:54.095Z,100839.88
2022-08-25T03:49:24.186Z,100828.31
2022-08-25T03:51:54.999Z,100833.81
2022-08-25T03:54:25.990Z,100814.44
2022-08-25T03:56:54.776Z,100814.47
2022-08-25T03:59:23.313Z,100829.59
2022-08-25T04:01:55.086Z,100832.53
2022-08-25T04:04:24.377Z,100837.84
2022-08-25T04:06:53.137Z,100851.22
2022-08-25T04:09:21.700Z,100875.66
2022-08-25T04:11:53.045Z,100870.31
2022-08-25T04:14:23.659Z,100861.41
2022-08-25T04:16:53.297Z,100880.06
2022-08-25T04:19:22.145Z,100883.59
2022-08-25T04:21:51.810Z,100878.28
2022-08-25T04:24:25.117Z,100883.13
2022-08-25T04:26:53.549Z,100884.00
2022-08-25T04:29:24.086Z,100901.16
2022-08-25T04:31:54.882Z,100911.00
2022-08-25T04:34:30.926Z,100905.56
2022-08-25T04:37:03.041Z,100905.69
2022-08-25T04:39:32.111Z,100900.00
2022-08-25T04:42:01.009Z,100884.47
2022-08-25T04:44:30.605Z,100896.06
2022-08-25T04:46:59.349Z,100906.47
2022-08-25T04:49:28.493Z,100900.31
2022-08-25T04:51:57.633Z,100907.69
2022-08-25T04:54:26.413Z,100913.06
2022-08-25T04:56:58.446Z,100905.78
2022-08-25T04:59:30.317Z,100918.13
2022-08-25T05:02:03.342Z,100927.97
2022-08-25T05:04:33.164Z,100925.94
2022-08-25T05:07:01.832Z,100915.22
2022-08-25T05:09:32.495Z,100914.22
2022-08-25T05:12:04.911Z,100917.88
2022-08-25T05:14:35.523Z,100920.34
2022-08-25T05:17:03.942Z,100927.19
2022-08-25T05:19:32.209Z,100907.44
2022-08-25T05:22:00.466Z,100912.69
2022-08-25T05:24:29.712Z,100921.50
2022-08-25T05:26:58.289Z,100913.13
2022-08-25T05:29:27.399Z,100907.75
2022-08-25T05:31:55.989Z,100897.09
2022-08-25T05:34:25.580Z,100889.78
2022-08-25T05:36:54.675Z,100907.63
2022-08-25T05:39:22.922Z,100909.50
2022-08-25T05:41:53.013Z,100921.81
2022-08-25T05:44:21.625Z,100910.19
2022-08-25T05:46:50.674Z,100902.13
2022-08-25T05:49:19.185Z,100914.34
2022-08-25T05:51:47.499Z,100909.72
2022-08-25T05:54:16.094Z,100904.13
2022-08-25T05:56:45.546Z,100899.47
2022-08-25T05:59:13.884Z,100886.97
2022-08-25T06:02:00.841Z,100893.72
2022-08-25T06:04:29.377Z,100897.25
2022-08-25T06:06:57.730Z,100892.81
2022-08-25T06:09:26.587Z,100894.19
2022-08-25T06:11:55.534Z,100893.50
2022-08-25T06:14:25.029Z,100886.25
2022-08-25T06:16:53.629Z,100890.41
2022-08-25T06:19:23.677Z,100883.75
2022-08-25T06:21:56.078Z,100867.47
2022-08-25T06:24:26.999Z,100860.56
2022-08-25T06:26:56.772Z,100852.56
2022-08-25T06:29:25.474Z,100849.84
2022-08-25T06:31:53.791Z,100858.34
2022-08-25T06:34:23.913Z,100833.91
2022-08-25T06:36:53.107Z,100820.56
2022-08-25T06:39:21.773Z,100846.13
2022-08-25T06:41:54.431Z,100827.72
2022-08-25T06:44:24.155Z,100814.41
2022-08-25T06:46:52.548Z,100815.59
2022-08-25T06:49:21.048Z,100801.75
2022-08-25T06:51:50.715Z,100795.97
2022-08-25T06:54:18.914Z,100790.34
2022-08-25T06:56:49.686Z,100776.59
2022-08-25T06:59:18.959Z,100764.16
2022-08-25T07:01:47.286Z,100775.81
2022-08-25T07:04:18.624Z,100770.19
2022-08-25T07:06:47.317Z,100780.59
2022-08-25T07:09:16.504Z,100779.94
2022-08-25T07:11:45.769Z,100755.78
2022-08-25T07:14:16.962Z,100760.59
2022-08-25T07:16:49.332Z,100762.53
2022-08-25T07:19:22.108Z,100738.44
2022-08-25T07:21:55.004Z,100751.72
2022-08-25T07:24:24.130Z,100736.06
2022-08-25T07:26:52.917Z,100708.13
2022-08-25T07:29:31.976Z,100722.75
2022-08-25T07:32:02.394Z,100740.94
2022-08-25T07:34:51.846Z,100707.06
2022-08-25T07:40:15.462Z,100712.63
2022-08-25T07:42:45.084Z,100680.22
2022-08-25T07:45:13.975Z,100690.34
2022-08-25T07:47:45.701Z,100705.38
2022-08-25T07:50:14.531Z,100687.34
2022-08-25T07:52:42.994Z,100671.81
2022-08-25T07:55:11.694Z,100668.44
2022-08-25T07:57:43.025Z,100677.84
2022-08-25T08:00:16.608Z,100693.78
2022-08-25T08:02:45.515Z,100675.66
2022-08-25T08:05:16.139Z,100706.88
2022-08-25T08:07:44.897Z,100634.94
2022-08-25T08:13:07.103Z,100662.47
2022-08-25T08:15:37.015Z,100668.34
2022-08-25T08:18:07.242Z,100667.31
2022-08-25T08:20:42.552Z,100582.78
2022-08-25T08:23:11.807Z,100629.44
2022-08-25T08:25:40.237Z,100563.25
2022-08-25T08:28:08.854Z,100584.78
2022-08-25T08:30:39.440Z,100546.03
2022-08-25T08:33:11.354Z,100574.13
2022-08-25T08:35:41.766Z,100582.31
2022-08-25T08:38:17.249Z,100551.53
2022-08-25T08:41:23.316Z,100583.84
2022-08-25T08:44:24.374Z,100546.13
2022-08-25T08:47:38.149Z,100507.56
2022-08-25T08:50:27.898Z,100534.72
2022-08-25T08:53:04.071Z,100493.66
2022-08-25T08:56:15.104Z,100493.22
2022-08-25T08:58:56.166Z,100506.16
2022-08-25T09:01:46.899Z,100496.34
2022-08-25T09:04:53.110Z,100448.47
2022-08-25T09:07:30.853Z,100430.84
2022-08-25T09:10:00.629Z,100398.31
2022-08-25T09:12:55.370Z,100470.06
2022-08-25T09:16:02.835Z,100429.66
2022-08-25T09:18:55.350Z,100364.41
2022-08-25T09:21:56.633Z,100366.44
2022-08-25T09:24:59.976Z,100381.03
2022-08-25T09:27:58.810Z,100385.00
2022-08-25T09:30:34.112Z,100354.34
2022-08-25T09:33:05.133Z,100329.50
2022-08-25T09:35:37.510Z,100390.25
2022-08-25T09:38:12.155Z,100386.38
2022-08-25T09:40:47.479Z,100388.84
2022-08-25T09:43:43.192Z,100223.63
2022-08-25T09:46:26.922Z,100234.63
2022-08-25T09:49:16.786Z,100175.66
2022-08-25T09:51:45.308Z,100204.06
2022-08-25T09:54:13.027Z,100270.34
2022-08-25T09:56:54.429Z,100225.56
2022-08-25T09:59:32.868Z,100219.00
2022-08-25T10:02:28.845Z,100225.38
2022-08-25T10:04:57.428Z,100133.00
2022-08-25T10:07:37.306Z,100233.25
2022-08-25T10:10:19.403Z,100046.16
2022-08-25T10:12:51.294Z,100053.81
2022-08-25T10:15:29.466Z,100034.28
2022-08-25T10:18:29.550Z,100073.06
2022-08-25T10:21:19.587Z,100031.84
2022-08-25T10:23:52.694Z,100029.41
2022-08-25T10:26:53.850Z,100079.09
2022-08-25T10:29:59.004Z,100074.13
2022-08-25T10:33:01.048Z,100129.69
2022-08-25T10:36:04.141Z,99954.47
2022-08-25T10:38:48.438Z,99899.66
2022-08-25T10:41:28.335Z,99885.97
2022-08-25T10:44:42.717Z,100014.59
2022-08-25T10:47:22.710Z,99992.69
2022-08-25T10:50:04.831Z,99907.59
2022-08-25T10:52:39.797Z,99860.25
2022-08-25T10:55:17.185Z,99944.97
2022-08-25T10:58:05.175Z,99904.25
2022-08-25T11:00:48.730Z,99791.19
2022-08-25T11:04:02.701Z,99842.69
2022-08-25T11:06:57.117Z,99803.56
2022-08-25T11:09:33.585Z,99867.75
2022-08-25T11:12:19.474Z,99918.19
2022-08-25T11:14:57.645Z,99782.28
2022-08-25T11:17:39.800Z,99794.03
2022-08-25T11:20:19.144Z,99669.00
2022-08-25T11:22:58.000Z,99794.34
2022-08-25T11:25:35.299Z,99660.75
2022-08-25T11:28:26.753Z,99696.19
2022-08-25T11:30:58.479Z,99656.75
2022-08-25T11:33:30.676Z,99710.75
2022-08-25T11:36:11.530Z,99694.84
2022-08-25T11:39:08.129Z,99772.25
2022-08-25T11:42:32.063Z,99682.38
2022-08-25T11:45:45.744Z,99793.19
2022-08-25T11:48:52.335Z,99748.59
2022-08-25T11:51:41.624Z,99707.25
2022-08-25T11:54:44.666Z,99768.88
2022-08-25T11:57:16.730Z,99759.84
2022-08-25T11:59:50.416Z,99662.31
2022-08-25T12:02:42.712Z,99733.06
2022-08-25T12:05:32.217Z,99614.03
2022-08-25T12:08:25.197Z,99596.59
2022-08-25T12:11:11.203Z,99634.78
2022-08-25T12:13:49.143Z,99596.75
2022-08-25T12:16:40.928Z,99476.81
2022-08-25T12:19:30.496Z,99679.31
2022-08-25T12:22:03.141Z,99602.78
2022-08-25T12:24:48.040Z,99629.56
2022-08-25T12:27:33.603Z,99502.97
2022-08-25T12:30:18.504Z,99596.53
2022-08-25T12:33:22.121Z,99486.66
2022-08-25T12:36:06.460Z,99450.03
2022-08-25T12:38:52.394Z,99406.00
2022-08-25T12:41:31.101Z,99389.59
2022-08-25T12:44:41.873Z,99500.34
2022-08-25T12:47:27.243Z,99594.81
2022-08-25T12:50:36.411Z,99421.28
2022-08-25T12:53:11.797Z,99409.84
2022-08-25T12:55:48.011Z,99404.06
2022-08-25T12:58:17.116Z,99469.22
2022-08-25T13:01:35.748Z,99429.47
2022-08-25T13:04:26.199Z,99441.41
2022-08-25T13:07:31.382Z,99448.53
2022-08-25T13:10:49.074Z,99341.72
2022-08-25T13:13:47.582Z,99437.13
2022-08-25T13:16:30.335Z,99393.06
2022-08-25T13:18:59.692Z,99406.00
2022-08-25T13:21:36.222Z,99315.44
2022-08-25T13:24:26.630Z,99300.19
2022-08-25T13:27:01.225Z,99344.66
2022-08-25T13:29:37.322Z,99285.91
2022-08-25T13:32:14.924Z,99278.84
2022-08-25T13:34:44.068Z,99269.66
2022-08-25T13:37:29.508Z,99257.94
2022-08-25T13:40:30.047Z,99293.38
2022-08-25T13:43:05.792Z,99232.13
2022-08-25T13:45:46.903Z,99306.94
2022-08-25T13:48:38.429Z,99177.59
2022-08-25T13:51:31.275Z,99208.31
2022-08-25T13:54:05.955Z,99206.91
2022-08-25T13:56:41.177Z,99205.38
2022-08-25T13:59:33.245Z,99200.59
2022-08-25T14:02:01.948Z,99282.19
2022-08-25T14:04:53.108Z,99191.81
2022-08-25T14:07:26.024Z,99143.00
2022-08-25T14:09:56.083Z,99186.31
2022-08-25T14:12:35.591Z,99233.44
2022-08-25T14:15:17.671Z,99154.09
2022-08-25T14:18:01.339Z,99219.38
2022-08-25T14:20:32.378Z,99147.56
2022-08-25T14:23:16.214Z,99166.97
2022-08-25T14:25:50.122Z,99184.84
2022-08-25T14:28:22.823Z,99117.19
2022-08-25T14:30:56.193Z,99131.97
2022-08-25T14:33:31.819Z,99172.47
2022-08-25T14:36:02.893Z,99049.00
2022-08-25T14:38:33.190Z,99212.69
2022-08-25T14:41:01.672Z,99172.94
2022-08-25T14:43:31.923Z,99112.53
2022-08-25T14:46:05.772Z,99123.53
2022-08-25T14:48:43.106Z,99192.22
2022-08-25T14:51:13.621Z,99079.25
2022-08-25T14:53:43.339Z,99091.09
2022-08-25T14:56:11.878Z,99143.97
2022-08-25T14:58:48.423Z,99182.63
2022-08-25T15:01:29.148Z,99113.72
2022-08-25T15:04:05.441Z,99174.22
2022-08-25T15:06:36.413Z,99046.28
2022-08-25T15:09:11.111Z,99131.72
2022-08-25T15:11:44.364Z,99168.72
2022-08-25T15:14:17.588Z,99072.34
2022-08-25T15:16:53.253Z,99130.38
2022-08-25T15:19:25.105Z,99106.34
2022-08-25T15:21:54.363Z,99144.19
2022-08-25T15:24:27.517Z,99184.53
2022-08-25T15:27:02.296Z,99155.28
2022-08-25T15:29:35.021Z,99119.38
2022-08-25T15:32:07.415Z,99072.50
2022-08-25T15:34:36.882Z,99109.00
2022-08-25T15:37:15.432Z,99145.47
2022-08-25T15:39:45.713Z,99158.16
2022-08-25T15:42:15.294Z,99044.88
2022-08-25T15:44:53.221Z,99042.66
2022-08-25T15:47:24.294Z,99058.97
2022-08-25T15:50:14.666Z,99045.44
2022-08-25T15:52:47.455Z,99041.19
2022-08-25T15:55:17.394Z,99066.91
2022-08-25T15:57:45.914Z,99084.91
2022-08-25T16:00:16.643Z,99109.97
2022-08-25T16:02:45.491Z,99054.38
2022-08-25T16:05:16.466Z,99075.63
2022-08-25T16:07:51.680Z,99147.00
2022-08-25T16:10:21.163Z,99024.69
2022-08-25T16:12:50.118Z,99092.63
2022-08-25T16:15:18.520Z,99104.16
2022-08-25T16:17:52.557Z,99125.59
2022-08-25T16:20:20.977Z,99090.91
2022-08-25T16:22:51.396Z,99050.56
2022-08-25T16:25:20.891Z,99127.13
2022-08-25T16:27:49.784Z,99094.19
2022-08-25T16:30:18.634Z,99120.47
2022-08-25T16:32:47.148Z,99153.38
2022-08-25T16:35:16.516Z,99152.22
2022-08-25T16:37:44.913Z,99163.03
2022-08-25T16:40:14.851Z,99214.84
2022-08-25T16:42:43.410Z,99128.00
2022-08-25T16:45:11.929Z,99127.81
2022-08-25T16:47:42.758Z,99200.59
2022-08-25T16:50:12.028Z,99098.97
2022-08-25T16:52:59.643Z,99069.59
2022-08-25T16:55:39.140Z,99100.19
2022-08-25T16:58:12.605Z,99226.47
2022-08-25T17:00:44.682Z,99150.91
2022-08-25T17:03:13.434Z,99196.00
2022-08-25T17:05:43.175Z,99185.69
2022-08-25T17:08:31.377Z,99095.50
2022-08-25T17:11:14.197Z,99242.56
2022-08-25T17:13:52.157Z,99206.63
2022-08-25T17:16:24.817Z,99188.63
2022-08-25T17:18:53.300Z,99224.25
2022-08-25T17:21:26.908Z,99258.66
2022-08-25T17:23:57.929Z,99274.41
2022-08-25T17:26:29.212Z,99288.13
2022-08-25T17:29:01.177Z,99222.41
2022-08-25T17:31:30.868Z,99121.19
2022-08-25T17:34:09.874Z,99216.59
2022-08-25T17:36:41.282Z,99247.41
2022-08-25T17:39:14.166Z,99287.88
2022-08-25T17:41:44.002Z,99130.19
2022-08-25T17:44:12.997Z,99161.34
2022-08-25T17:46:47.553Z,99168.09
2022-08-25T17:49:17.445Z,99230.97
2022-08-25T17:51:45.990Z,99292.34
2022-08-25T17:54:14.245Z,99175.59
2022-08-25T17:56:42.348Z,99197.78
2022-08-25T17:59:11.948Z,99141.78
2022-08-25T18:01:41.020Z,99188.38
2022-08-25T18:04:17.612Z,99272.50
2022-08-25T18:06:48.626Z,99321.94
2022-08-25T18:09:17.793Z,99297.28
2022-08-25T18:11:46.248Z,99346.06
2022-08-25T18:14:16.735Z,99300.63
2022-08-25T18:16:45.774Z,99345.94
2022-08-25T18:19:14.621Z,99319.75
2022-08-25T18:21:43.412Z,99326.06
2022-08-25T18:24:13.320Z,99331.50
2022-08-25T18:26:41.827Z,99399.06
2022-08-25T18:29:13.097Z,99421.63
2022-08-25T18:31:42.182Z,99349.19
2022-08-25T18:34:11.617Z,99347.84
2022-08-25T18:36:41.349Z,99349.13
2022-08-25T18:39:30.503Z,99340.28
2022-08-25T18:42:05.181Z,99359.91
2022-08-25T18:44:37.944Z,99407.22
2022-08-25T18:47:07.469Z,99403.13
2022-08-25T18:49:37.216Z,99425.75
2022-08-25T18:52:05.939Z,99446.69
2022-08-25T18:54:36.093Z,99450.50
2022-08-25T18:57:04.438Z,99449.63
2022-08-25T18:59:37.128Z,99481.69
2022-08-25T19:02:07.178Z,99473.34
2022-08-25T19:04:35.614Z,99491.28
2022-08-25T19:07:05.200Z,99496.94
2022-08-25T19:09:36.465Z,99491.16
2022-08-25T19:12:05.663Z,99483.34
2022-08-25T19:14:33.459Z,99492.19
2022-08-25T19:17:02.236Z,99495.13
2022-08-25T19:19:30.259Z,99509.94
2022-08-25T19:21:59.693Z,99526.69
2022-08-25T19:24:28.645Z,99539.41
2022-08-25T19:26:57.913Z,99549.72
2022-08-25T19:29:26.540Z,99549.09
2022-08-25T19:32:01.125Z,99562.25
2022-08-25T19:34:38.177Z,99585.81
2022-08-25T19:37:16.800Z,99582.78
2022-08-25T19:39:52.952Z,99586.22
2022-08-25T19:42:34.911Z,99589.81
2022-08-25T19:45:11.202Z,99603.94
2022-08-25T19:47:42.158Z,99620.19
2022-08-25T19:50:16.809Z,99633.75
2022-08-25T19:52:49.915Z,99638.31
2022-08-25T19:55:20.525Z,99638.53
2022-08-25T19:57:48.841Z,99648.91
2022-08-25T20:00:26.250Z,99653.91
2022-08-25T20:02:56.223Z,99663.00
2022-08-25T20:05:28.531Z,99664.47
2022-08-25T20:07:59.431Z,99668.47
2022-08-25T20:10:31.788Z,99689.06
2022-08-25T20:13:05.411Z,99679.81
2022-08-25T20:15:38.990Z,99683.59
2022-08-25T20:18:08.129Z,99684.88
2022-08-25T20:20:36.600Z,99694.09
2022-08-25T20:23:24.094Z,99699.06
2022-08-25T20:25:52.897Z,99706.22
2022-08-25T20:28:20.593Z,99704.38
2022-08-25T20:30:48.888Z,99712.34
2022-08-25T20:33:20.191Z,99713.19
2022-08-25T20:35:52.949Z,99719.69
2022-08-25T20:38:21.474Z,99732.34
2022-08-25T20:40:49.598Z,99734.41
2022-08-25T20:43:17.950Z,99740.00
2022-08-25T20:45:49.239Z,99755.19
2022-08-25T20:48:18.057Z,99747.44
2022-08-25T20:50:46.184Z,99741.16
2022-08-25T20:53:26.264Z,99755.47
2022-08-25T20:55:54.473Z,99767.94
2022-08-25T20:58:22.662Z,99773.16
2022-08-25T21:00:51.872Z,99763.56
2022-08-25T21:03:21.175Z,99783.78
2022-08-25T21:05:49.466Z,99780.69
2022-08-25T21:08:23.823Z,99777.22
2022-08-25T21:10:53.542Z,99781.72
2022-08-25T21:13:22.754Z,99791.59
2022-08-25T21:15:51.094Z,99798.75
2022-08-25T21:18:19.304Z,99797.06
2022-08-25T21:20:47.453Z,99801.97
2022-08-25T21:23:15.634Z,99800.66
2022-08-25T21:25:43.851Z,99817.69
2022-08-25T21:28:12.024Z,99832.63
2022-08-25T21:30:44.785Z,99825.78
2022-08-25T21:33:15.653Z,99828.41
2022-08-25T21:35:44.133Z,99836.97
2022-08-25T21:38:15.280Z,99844.81
2022-08-25T21:40:44.858Z,99831.19
2022-08-25T21:43:13.303Z,99831.84
2022-08-25T21:45:46.780Z,99834.97
2022-08-25T21:48:15.822Z,99835.41
2022-08-25T21:50:44.106Z,99834.81
2022-08-25T21:53:12.319Z,99841.28
2022-08-25T21:55:42.140Z,99841.09
2022-08-25T21:58:10.982Z,99849.03
2022-08-25T22:00:39.210Z,99846.59
2022-08-25T22:03:07.639Z,99855.38
2022-08-25T22:05:37.644Z,99862.44
2022-08-25T22:08:06.052Z,99860.47
2022-08-25T22:10:34.757Z,99863.16
2022-08-25T22:13:04.058Z,99858.91
2022-08-25T22:15:32.388Z,99865.00
2022-08-25T22:18:00.660Z,99866.84
2022-08-25T22:20:29.567Z,99867.53
2022-08-25T22:22:58.145Z,99872.16
2022-08-25T22:25:28.273Z,99871.28
2022-08-25T22:27:57.207Z,99872.97
2022-08-25T22:30:26.263Z,99863.56
2022-08-25T22:32:59.032Z,99886.50
2022-08-25T22:35:28.485Z,99885.78
2022-08-25T22:37:57.270Z,99892.28
2022-08-25T22:40:29.145Z,99882.31
2022-08-25T22:42:58.141Z,99886.13
2022-08-25T22:45:27.342Z,99880.69
2022-08-25T22:47:55.982Z,99886.09
2022-08-25T22:50:24.360Z,99896.28
2022-08-25T22:52:53.913Z,99887.22
2022-08-25T22:55:22.154Z,99907.47
2022-08-25T22:57:50.557Z,99907.22
2022-08-25T23:00:23.298Z,99897.16
2022-08-25T23:02:53.482Z,99901.69
2022-08-25T23:05:22.264Z,99909.47
2022-08-25T23:07:51.286Z,99908.22
2022-08-25T23:10:20.886Z,99909.50
2022-08-25T23:12:49.194Z,99910.38
2022-08-25T23:15:17.373Z,99920.59
2022-08-25T23:17:45.682Z,99900.78
2022-08-25T23:20:34.280Z,99917.53
2022-08-25T23:23:03.020Z,99914.19
2022-08-25T23:25:31.448Z,99921.09
2022-08-25T23:27:59.943Z,99913.44
2022-08-25T23:30:28.134Z,99915.28
2022-08-25T23:32:58.843Z,99908.63
2022-08-25T23:35:27.093Z,99909.44
2022-08-25T23:37:58.698Z,99920.75
2022-08-25T23:40:27.810Z,99925.19
2022-08-25T23:42:56.036Z,99941.13
2022-08-25T23:45:24.242Z,99954.00
2022-08-25T23:47:54.081Z,99951.38
2022-08-25T23:50:22.276Z,99962.97
2022-08-25T23:52:50.642Z,99972.38
2022-08-25T23:55:18.999Z,99971.91
2022-08-25T23:57:51.400Z,99995.75
